Terminal Aerodrome Forecast
Issued by NWS

Home | Current Version | Previous Version | Text Only | Print | Product List | Glossary Off
Versions: 1 2 3 4 5 6 7 8 9 10 11 12 13 14 15 16 17 18

362
FTUS43 KABR 151928 AAA
TAFATY
TAF AMD
KATY 151928Z 1519/1618 34018G25KT P6SM SCT020
      TEMPO 1519/1521 BKN015
     FM160200 34015KT P6SM BKN050
     FM161200 31008KT P6SM SCT250=

USA.gov is the U.S. government's official web portal to all federal, state and local government web resources and services.